createdAt,value
2023-04-29T00:02:46.187Z,99430.19
2023-04-29T00:07:38.063Z,99432.09
2023-04-29T00:12:31.926Z,99437.53
2023-04-29T00:17:23.613Z,99435.41
2023-04-29T00:22:15.689Z,99444.38
2023-04-29T00:27:07.325Z,99444.59
2023-04-29T00:31:59.288Z,99443.53
2023-04-29T00:36:50.898Z,99441.06
2023-04-29T00:41:42.704Z,99443.53
2023-04-29T00:46:35.082Z,99447.53
2023-04-29T00:51:27.144Z,99449.44
2023-04-29T00:56:21.172Z,99444.38
2023-04-29T01:01:13.155Z,99450.19
2023-04-29T01:06:25.745Z,99451.59
2023-04-29T01:11:23.363Z,99454.91
2023-04-29T01:16:25.712Z,99456.78
2023-04-29T01:21:18.132Z,99448.88
2023-04-29T01:26:10.131Z,99448.28
2023-04-29T01:31:11.445Z,99455.00
2023-04-29T01:36:11.099Z,99453.34
2023-04-29T01:41:10.188Z,99455.22
2023-04-29T01:46:04.836Z,99455.22
2023-04-29T01:50:56.435Z,99459.03
2023-04-29T01:55:48.070Z,99461.13
2023-04-29T02:00:39.737Z,99469.28
2023-04-29T02:05:34.146Z,99466.19
2023-04-29T02:10:26.101Z,99460.41
2023-04-29T02:15:17.966Z,99465.84
2023-04-29T02:20:10.999Z,99460.41
2023-04-29T02:25:02.722Z,99472.31
2023-04-29T02:29:54.522Z,99461.69
2023-04-29T02:34:46.896Z,99470.88
2023-04-29T02:39:38.600Z,99460.88
2023-04-29T02:44:31.476Z,99456.25
2023-04-29T02:49:23.096Z,99456.72
2023-04-29T02:54:14.793Z,99449.03
2023-04-29T02:59:06.446Z,99452.19
2023-04-29T03:03:58.505Z,99443.06
2023-04-29T03:08:50.594Z,99443.31
2023-04-29T03:13:42.191Z,99461.72
2023-04-29T03:18:33.722Z,99464.44
2023-04-29T03:23:25.645Z,99459.81
2023-04-29T03:28:17.890Z,99457.34
2023-04-29T03:33:09.680Z,99456.75
2023-04-29T03:38:01.323Z,99452.75
2023-04-29T03:42:53.029Z,99466.34
2023-04-29T03:47:44.657Z,99461.72
2023-04-29T03:52:39.235Z,99468.19
2023-04-29T03:57:30.790Z,99464.06
2023-04-29T04:02:25.460Z,99465.94
2023-04-29T04:07:17.280Z,99459.56
2023-04-29T04:12:08.929Z,99470.03
2023-04-29T04:17:01.314Z,99469.66
2023-04-29T04:21:52.897Z,99476.31
2023-04-29T04:26:44.445Z,99484.22
2023-04-29T04:31:36.869Z,99484.00
2023-04-29T04:36:28.513Z,99479.38
2023-04-29T04:41:20.071Z,99485.84
2023-04-29T04:46:12.956Z,99485.50
2023-04-29T04:51:12.608Z,99486.31
2023-04-29T04:56:04.781Z,99492.81
2023-04-29T05:00:56.417Z,99491.16
2023-04-29T05:05:56.524Z,99493.28
2023-04-29T05:10:48.166Z,99496.22
2023-04-29T05:15:40.034Z,99501.63
2023-04-29T05:20:31.645Z,99496.44
2023-04-29T05:25:23.405Z,99503.50
2023-04-29T05:30:15.974Z,99508.03
2023-04-29T05:35:07.999Z,99508.88
2023-04-29T05:39:59.587Z,99517.38
2023-04-29T05:44:51.418Z,99517.97
2023-04-29T05:49:43.200Z,99522.38
2023-04-29T05:54:35.375Z,99530.88
2023-04-29T05:59:26.917Z,99534.81
2023-04-29T06:04:18.716Z,99541.44
2023-04-29T06:09:19.862Z,99539.56
2023-04-29T06:14:15.907Z,99535.78
2023-04-29T06:19:07.650Z,99543.47
2023-04-29T06:23:59.331Z,99544.53
2023-04-29T06:28:51.079Z,99547.47
2023-04-29T06:33:43.015Z,99551.41
2023-04-29T06:38:34.638Z,99555.53
2023-04-29T06:43:29.711Z,99559.09
2023-04-29T06:48:21.886Z,99558.03
2023-04-29T06:53:13.526Z,99561.13
2023-04-29T06:58:05.118Z,99560.69
2023-04-29T07:02:56.883Z,99565.66
2023-04-29T07:07:48.571Z,99563.88
2023-04-29T07:12:41.792Z,99567.59
2023-04-29T07:17:33.588Z,99565.84
2023-04-29T07:22:26.016Z,99567.56
2023-04-29T07:27:17.679Z,99570.13
2023-04-29T07:32:09.264Z,99589.34
2023-04-29T07:37:01.107Z,99588.53
2023-04-29T07:41:52.687Z,99603.81
2023-04-29T07:46:44.353Z,99602.19
2023-04-29T07:51:35.996Z,99612.38
2023-04-29T07:56:27.597Z,99628.63
2023-04-29T08:01:19.286Z,99622.09
2023-04-29T08:06:11.007Z,99627.53
2023-04-29T08:11:02.717Z,99623.75
2023-04-29T08:15:54.374Z,99631.94
2023-04-29T08:20:48.447Z,99631.94
2023-04-29T08:25:43.467Z,99631.03
2023-04-29T08:30:38.800Z,99625.13
2023-04-29T08:35:31.344Z,99634.47
2023-04-29T08:40:22.939Z,99637.44
2023-04-29T08:45:17.420Z,99636.50
2023-04-29T08:50:09.398Z,99637.88
2023-04-29T08:55:05.547Z,99647.25
2023-04-29T09:00:00.171Z,99643.47
2023-04-29T09:05:17.998Z,99647.25
2023-04-29T09:10:10.873Z,99646.84
2023-04-29T09:15:04.446Z,99649.97
2023-04-29T09:19:57.201Z,99637.69
2023-04-29T09:24:48.958Z,99650.72
2023-04-29T09:30:01.037Z,99642.31
2023-04-29T09:34:52.869Z,99634.00
2023-04-29T09:39:44.693Z,99643.28
2023-04-29T09:44:36.733Z,99642.66
2023-04-29T09:49:35.550Z,99646.44
2023-04-29T09:54:30.582Z,99642.44
2023-04-29T09:59:23.025Z,99633.63
2023-04-29T10:04:16.571Z,99637.72
2023-04-29T10:09:13.649Z,99639.91
2023-04-29T10:14:06.829Z,99636.94
2023-04-29T10:19:03.746Z,99644.63
2023-04-29T10:23:57.737Z,99647.63
2023-04-29T10:28:51.776Z,99653.84
2023-04-29T10:33:48.112Z,99655.69
2023-04-29T10:38:44.187Z,99654.63
2023-04-29T10:43:36.051Z,99654.56
2023-04-29T10:48:27.672Z,99660.94
2023-04-29T10:53:20.124Z,99655.19
2023-04-29T10:58:42.192Z,99652.31
2023-04-29T11:03:47.088Z,99644.16
2023-04-29T11:08:43.233Z,99652.50
2023-04-29T11:13:46.705Z,99641.31
2023-04-29T11:19:10.106Z,99636.75
2023-04-29T11:24:02.829Z,99640.91
2023-04-29T11:28:56.680Z,99646.63
2023-04-29T11:33:48.283Z,99641.59
2023-04-29T11:38:43.618Z,99638.06
2023-04-29T11:43:35.172Z,99643.84
2023-04-29T11:48:27.035Z,99634.03
2023-04-29T11:53:25.284Z,99639.91
2023-04-29T11:58:18.085Z,99635.50
2023-04-29T12:03:17.756Z,99634.13
2023-04-29T12:08:09.574Z,99631.59
2023-04-29T12:13:01.359Z,99621.66
2023-04-29T12:17:53.194Z,99633.22
2023-04-29T12:22:44.951Z,99621.97
2023-04-29T12:27:37.155Z,99623.34
2023-04-29T12:32:28.884Z,99620.94
2023-04-29T12:37:22.678Z,99621.81
2023-04-29T12:42:18.112Z,99621.81
2023-04-29T12:47:11.571Z,99623.50
2023-04-29T12:52:04.201Z,99620.75
2023-04-29T12:56:55.835Z,99621.34
2023-04-29T13:01:47.420Z,99629.66
2023-04-29T13:06:39.702Z,99627.53
2023-04-29T13:11:34.285Z,99627.53
2023-04-29T13:16:26.376Z,99633.28
2023-04-29T13:21:17.961Z,99638.84
2023-04-29T13:26:10.858Z,99632.81
2023-04-29T13:31:02.439Z,99639.13
2023-04-29T13:35:54.122Z,99629.22
2023-04-29T13:40:47.079Z,99631.72
2023-04-29T13:45:42.856Z,99638.59
2023-04-29T13:51:14.454Z,99638.06
2023-04-29T14:01:02.092Z,99626.47
2023-04-29T14:05:54.197Z,99636.34
2023-04-29T14:10:46.082Z,99641.25
2023-04-29T14:15:37.726Z,99648.09
2023-04-29T14:20:29.348Z,99650.47
2023-04-29T14:25:21.147Z,99654.13
2023-04-29T14:30:13.231Z,99666.38
2023-04-29T14:35:05.209Z,99665.47
2023-04-29T14:39:56.810Z,99664.25
2023-04-29T14:44:48.433Z,99666.31
2023-04-29T14:49:40.553Z,99657.41
2023-04-29T14:54:32.179Z,99671.50
2023-04-29T14:59:23.876Z,99654.94
2023-04-29T15:04:15.434Z,99661.97
2023-04-29T15:09:08.014Z,99650.38
2023-04-29T15:14:00.234Z,99646.31
2023-04-29T15:18:52.028Z,99648.50
2023-04-29T15:23:43.660Z,99644.38
2023-04-29T15:28:35.252Z,99648.69
2023-04-29T15:33:26.973Z,99646.19
2023-04-29T15:38:18.560Z,99658.25
2023-04-29T15:43:10.265Z,99647.31
2023-04-29T15:48:01.828Z,99644.31
2023-04-29T15:52:55.922Z,99649.31
2023-04-29T15:57:47.529Z,99649.34
2023-04-29T16:02:39.204Z,99645.13
2023-04-29T16:07:31.264Z,99645.59
2023-04-29T16:12:22.936Z,99645.72
2023-04-29T16:17:15.539Z,99634.09
2023-04-29T16:22:08.761Z,99626.81
2023-04-29T16:27:01.550Z,99637.47
2023-04-29T16:31:53.315Z,99630.59
2023-04-29T16:36:45.028Z,99628.63
2023-04-29T16:41:37.421Z,99633.00
2023-04-29T16:46:30.407Z,99623.94
2023-04-29T16:51:25.270Z,99626.41
2023-04-29T16:56:17.116Z,99618.19
2023-04-29T17:01:08.808Z,99618.78
2023-04-29T17:06:00.855Z,99619.31
2023-04-29T17:10:53.466Z,99621.00
2023-04-29T17:15:45.141Z,99617.69
2023-04-29T17:20:36.816Z,99628.88
2023-04-29T17:25:28.898Z,99629.75
2023-04-29T17:30:20.655Z,99621.19
2023-04-29T17:35:12.525Z,99631.03
2023-04-29T17:40:04.665Z,99625.16
2023-04-29T17:44:56.375Z,99626.44
2023-04-29T17:49:48.839Z,99637.31
2023-04-29T17:54:41.213Z,99631.78
2023-04-29T17:59:32.813Z,99632.00
2023-04-29T18:04:24.812Z,99635.56
2023-04-29T18:09:17.869Z,99642.34
2023-04-29T18:14:09.655Z,99638.75
2023-04-29T18:19:01.388Z,99637.34
2023-04-29T18:23:54.500Z,99645.75
2023-04-29T18:28:46.771Z,99638.06
2023-04-29T18:33:38.499Z,99651.97
2023-04-29T18:38:30.299Z,99649.44
2023-04-29T18:43:24.716Z,99656.25
2023-04-29T18:48:17.083Z,99644.50
2023-04-29T18:53:08.847Z,99654.53
2023-04-29T18:58:00.523Z,99659.19
2023-04-29T19:02:52.191Z,99652.06
2023-04-29T19:07:44.264Z,99655.91
2023-04-29T19:12:35.981Z,99669.22
2023-04-29T19:17:27.820Z,99658.22
2023-04-29T19:22:19.452Z,99657.06
2023-04-29T19:27:11.218Z,99662.47
2023-04-29T19:32:03.671Z,99665.72
2023-04-29T19:36:55.915Z,99665.06
2023-04-29T19:41:47.470Z,99666.06
2023-04-29T19:46:39.193Z,99667.06
2023-04-29T19:51:31.193Z,99674.28
2023-04-29T19:56:23.461Z,99684.81
2023-04-29T20:01:15.410Z,99686.81
2023-04-29T20:06:07.823Z,99688.13
2023-04-29T20:11:00.921Z,99680.34
2023-04-29T20:15:54.234Z,99684.63
2023-04-29T20:20:45.885Z,99680.97
2023-04-29T20:25:37.877Z,99683.13
2023-04-29T20:30:29.554Z,99694.06
2023-04-29T20:35:21.667Z,99697.28
2023-04-29T20:40:14.225Z,99699.81
2023-04-29T20:45:06.818Z,99701.00
2023-04-29T20:49:58.409Z,99687.78
2023-04-29T20:54:52.319Z,99700.47
2023-04-29T20:59:43.939Z,99705.84
2023-04-29T21:04:35.616Z,99709.56
2023-04-29T21:09:27.913Z,99702.81
2023-04-29T21:14:19.470Z,99700.13
2023-04-29T21:19:11.158Z,99704.78
2023-04-29T21:24:03.085Z,99706.44
2023-04-29T21:28:54.652Z,99710.63
2023-04-29T21:33:46.575Z,99713.72
2023-04-29T21:38:38.245Z,99711.22
2023-04-29T21:43:30.114Z,99718.09
2023-04-29T21:48:21.985Z,99715.75
2023-04-29T21:53:16.494Z,99710.41
2023-04-29T21:58:08.447Z,99704.69
2023-04-29T22:03:01.252Z,99699.34
2023-04-29T22:07:53.352Z,99705.13
2023-04-29T22:12:44.988Z,99700.84
2023-04-29T22:17:41.647Z,99695.88
2023-04-29T22:22:33.318Z,99706.19
2023-04-29T22:27:24.985Z,99697.66
2023-04-29T22:32:16.627Z,99695.88
2023-04-29T22:37:08.453Z,99697.75
2023-04-29T22:42:00.054Z,99691.72
2023-04-29T22:46:51.918Z,99696.81
2023-04-29T22:51:43.475Z,99695.72
2023-04-29T22:56:35.102Z,99688.88
2023-04-29T23:01:26.798Z,99688.50
2023-04-29T23:06:18.468Z,99687.09
2023-04-29T23:11:11.728Z,99685.88
2023-04-29T23:16:03.764Z,99673.44
2023-04-29T23:20:56.752Z,99677.31
2023-04-29T23:25:49.014Z,99681.69
2023-04-29T23:30:40.810Z,99671.88
2023-04-29T23:35:32.687Z,99674.00
2023-04-29T23:40:24.272Z,99685.72
2023-04-29T23:45:16.007Z,99675.28
2023-04-29T23:50:08.113Z,99683.31
2023-04-29T23:55:00.003Z,99670.88
2023-04-29T23:59:53.002Z,99674.06
